Time;durP1;ratioP1;P1;durP2;ratioP2;P2;SDS_P1;SDS_P2;PMS_P1;PMS_P2;Temp;Humidity;BMP_temperature;BMP_pressure;BME280_temperature;BME280_humidity;BME280_pressure;Samples;Min_cycle;Max_cycle;Signal;HPM_P1;HPM_P2
2022/05/22 00:00:28;;;;;;;;;2.00;2.00;;;;;;;;5151037;28;8788;-70
2022/05/22 00:03:00;;;;;;;;;2.00;2.00;;;;;;;;5166574;28;8777;-70
2022/05/22 00:05:31;;;;;;;;;4.80;4.60;;;;;;;;5150766;28;8847;-69
2022/05/22 00:08:03;;;;;;;;;23.00;22.40;;;;;;;;5168315;28;8960;-69
2022/05/22 00:10:35;;;;;;;;;4.40;4.40;;;;;;;;5187600;28;8802;-69
2022/05/22 00:13:25;;;;;;;;;7.60;7.60;;;;;;;;5190472;28;8775;-68
2022/05/22 00:18:46;;;;;;;;;2.00;2.00;;;;;;;;5188520;28;8787;-68
2022/05/22 00:21:17;;;;;;;;;1.00;1.00;;;;;;;;5188394;28;9665;-68
2022/05/22 00:23:48;;;;;;;;;1.20;1.20;;;;;;;;5171273;28;8791;-68
2022/05/22 00:26:20;;;;;;;;;2.00;2.00;;;;;;;;5171425;28;8921;-69
2022/05/22 00:28:51;;;;;;;;;10.40;10.40;;;;;;;;5171346;28;8835;-69
2022/05/22 00:31:22;;;;;;;;;3.40;3.40;;;;;;;;5177086;28;9562;-69
2022/05/22 00:33:54;;;;;;;;;6.80;6.80;;;;;;;;5183346;28;8811;-69
2022/05/22 00:36:26;;;;;;;;;6.20;6.20;;;;;;;;5183198;28;8824;-69
2022/05/22 00:38:57;;;;;;;;;5.20;5.20;;;;;;;;5166822;28;8847;-69
2022/05/22 00:41:33;;;;;;;;;2.60;2.60;;;;;;;;5167207;28;8773;-69
2022/05/22 00:44:05;;;;;;;;;0.40;0.40;;;;;;;;5150672;28;8777;-69
2022/05/22 00:46:37;;;;;;;;;1.00;1.00;;;;;;;;5184263;28;8899;-69
2022/05/22 00:49:31;;;;;;;;;2.00;2.00;;;;;;;;5183168;28;8772;-69
2022/05/22 00:52:07;;;;;;;;;1.00;1.00;;;;;;;;5167109;28;8797;-70
2022/05/22 00:55:00;;;;;;;;;0.00;0.00;;;;;;;;5153216;28;8866;-69
2022/05/22 00:57:34;;;;;;;;;0.00;0.00;;;;;;;;5152653;28;8915;-69
2022/05/22 01:00:08;;;;;;;;;0.00;0.00;;;;;;;;5154683;28;8795;-69
2022/05/22 01:05:30;;;;;;;;;1.60;1.60;;;;;;;;5169919;28;8877;-70
2022/05/22 01:08:05;;;;;;;;;2.40;2.40;;;;;;;;5162530;28;8868;-69
2022/05/22 01:10:43;;;;;;;;;1.00;1.00;;;;;;;;5150467;28;8816;-70
2022/05/22 01:13:17;;;;;;;;;0.00;0.00;;;;;;;;5167000;28;8931;-69
2022/05/22 01:15:49;;;;;;;;;0.00;0.00;;;;;;;;5186076;28;8824;-69
2022/05/22 01:18:20;;;;;;;;;11.40;11.40;;;;;;;;5189445;28;8799;-69
2022/05/22 01:21:22;;;;;;;;;1.00;1.00;;;;;;;;5176702;28;8826;-69
2022/05/22 01:23:54;;;;;;;;;1.00;1.00;;;;;;;;5183241;28;8786;-70
2022/05/22 01:26:29;;;;;;;;;41.20;40.20;;;;;;;;5190058;28;8928;-69
2022/05/22 01:29:15;;;;;;;;;10.20;9.80;;;;;;;;5158965;28;8902;-71
2022/05/22 01:31:46;;;;;;;;;3.40;3.40;;;;;;;;5190242;28;8805;-71
2022/05/22 01:34:18;;;;;;;;;1.80;1.80;;;;;;;;5190223;28;8782;-71
2022/05/22 01:36:50;;;;;;;;;4.00;4.00;;;;;;;;5189074;28;9537;-72
2022/05/22 01:39:40;;;;;;;;;7.60;6.40;;;;;;;;5176100;28;9599;-71
2022/05/22 01:42:11;;;;;;;;;0.80;0.80;;;;;;;;5157680;28;8923;-71
2022/05/22 01:44:43;;;;;;;;;8.40;8.40;;;;;;;;5206406;28;8824;-71
2022/05/22 01:47:15;;;;;;;;;13.20;13.00;;;;;;;;5173666;28;8816;-70
2022/05/22 01:49:46;;;;;;;;;0.00;0.00;;;;;;;;5172889;28;8808;-70
2022/05/22 01:52:37;;;;;;;;;5.20;5.20;;;;;;;;5192433;28;8797;-70
2022/05/22 01:55:11;;;;;;;;;5.20;5.00;;;;;;;;5161944;28;8803;-70
2022/05/22 01:57:44;;;;;;;;;0.00;0.00;;;;;;;;5152763;28;8818;-70
2022/05/22 02:00:19;;;;;;;;;2.80;2.00;;;;;;;;5137650;28;8905;-70
2022/05/22 02:03:10;;;;;;;;;2.00;2.00;;;;;;;;5155730;28;8946;-70
2022/05/22 02:05:43;;;;;;;;;8.00;8.00;;;;;;;;5154914;28;8818;-70
2022/05/22 02:08:23;;;;;;;;;6.80;6.80;;;;;;;;5169320;28;9538;-70
2022/05/22 02:11:01;;;;;;;;;1.20;1.20;;;;;;;;5138040;28;8873;-71
2022/05/22 02:13:44;;;;;;;;;17.00;17.00;;;;;;;;5169269;28;8779;-70
2022/05/22 02:16:16;;;;;;;;;10.00;10.00;;;;;;;;5172523;28;9618;-70
2022/05/22 02:18:48;;;;;;;;;1.00;1.00;;;;;;;;5189075;28;8971;-70
2022/05/22 02:21:20;;;;;;;;;14.00;14.00;;;;;;;;5188907;28;8809;-70
2022/05/22 02:23:52;;;;;;;;;10.80;10.80;;;;;;;;5173169;28;8773;-70
2022/05/22 02:26:23;;;;;;;;;1.80;1.80;;;;;;;;5188203;28;8773;-70
2022/05/22 02:28:55;;;;;;;;;1.00;1.00;;;;;;;;5188935;28;8789;-70
2022/05/22 02:31:27;;;;;;;;;4.60;4.60;;;;;;;;5188606;28;8821;-69
2022/05/22 02:34:16;;;;;;;;;2.80;2.80;;;;;;;;5188913;28;8786;-70
2022/05/22 02:36:48;;;;;;;;;7.80;7.80;;;;;;;;5184472;28;8950;-70
2022/05/22 02:39:21;;;;;;;;;18.00;17.60;;;;;;;;5168513;28;8796;-69
2022/05/22 02:41:53;;;;;;;;;6.40;6.00;;;;;;;;5184701;28;8921;-69
2022/05/22 02:44:24;;;;;;;;;10.00;10.00;;;;;;;;5185389;28;8802;-69
2022/05/22 02:46:56;;;;;;;;;5.80;5.80;;;;;;;;5168300;28;8826;-70
2022/05/22 02:49:28;;;;;;;;;7.60;6.60;;;;;;;;5152119;28;8858;-68
2022/05/22 02:52:02;;;;;;;;;3.20;3.20;;;;;;;;5199363;28;8801;-70
2022/05/22 02:54:34;;;;;;;;;8.40;7.40;;;;;;;;5188191;28;8801;-69
2022/05/22 02:57:11;;;;;;;;;3.20;3.20;;;;;;;;5183847;28;8827;-68
2022/05/22 02:59:50;;;;;;;;;4.60;4.60;;;;;;;;5185208;28;8791;-68
2022/05/22 03:02:35;;;;;;;;;1.20;1.20;;;;;;;;5179746;28;9604;-69
2022/05/22 03:05:07;;;;;;;;;1.40;1.00;;;;;;;;5175189;28;8808;-69
2022/05/22 03:07:38;;;;;;;;;4.80;4.80;;;;;;;;5191829;28;8808;-68
2022/05/22 03:10:29;;;;;;;;;4.20;4.20;;;;;;;;5208457;28;8970;-68
2022/05/22 03:13:01;;;;;;;;;15.80;15.40;;;;;;;;5200746;28;8880;-69
2022/05/22 03:15:35;;;;;;;;;5.20;5.20;;;;;;;;5161060;28;8922;-69
2022/05/22 03:18:07;;;;;;;;;9.00;9.00;;;;;;;;5184117;28;8787;-70
2022/05/22 03:20:38;;;;;;;;;4.00;4.00;;;;;;;;5167460;28;8954;-69
2022/05/22 03:23:09;;;;;;;;;2.40;2.40;;;;;;;;5190896;28;8797;-69
2022/05/22 03:25:41;;;;;;;;;6.20;6.20;;;;;;;;5187481;28;8865;-69
2022/05/22 03:28:30;;;;;;;;;3.60;3.60;;;;;;;;5173893;28;8782;-70
2022/05/22 03:31:20;;;;;;;;;5.00;5.00;;;;;;;;5173742;28;8814;-70
2022/05/22 03:33:52;;;;;;;;;1.00;1.00;;;;;;;;5155097;28;8909;-70
2022/05/22 03:36:24;;;;;;;;;1.00;1.00;;;;;;;;5167036;28;8803;-69
2022/05/22 03:38:57;;;;;;;;;17.40;17.00;;;;;;;;5151456;28;8826;-70
2022/05/22 03:41:29;;;;;;;;;0.80;0.80;;;;;;;;5151061;28;8865;-70
2022/05/22 03:44:01;;;;;;;;;1.00;1.00;;;;;;;;5167240;28;8791;-69
2022/05/22 03:46:37;;;;;;;;;4.00;4.00;;;;;;;;5167838;28;8817;-69
2022/05/22 03:49:11;;;;;;;;;14.80;14.80;;;;;;;;5150490;28;8865;-69
2022/05/22 03:52:01;;;;;;;;;3.40;3.40;;;;;;;;5166642;28;8799;-69
2022/05/22 03:54:32;;;;;;;;;4.60;4.60;;;;;;;;5174122;28;8931;-71
2022/05/22 03:57:08;;;;;;;;;4.20;4.20;;;;;;;;5170861;28;8823;-70
2022/05/22 03:59:41;;;;;;;;;1.80;1.80;;;;;;;;5163878;28;8794;-69
2022/05/22 04:02:15;;;;;;;;;10.60;10.60;;;;;;;;5166747;28;9649;-69
2022/05/22 04:04:49;;;;;;;;;5.40;5.40;;;;;;;;5142875;28;8794;-70
2022/05/22 04:07:40;;;;;;;;;2.00;2.00;;;;;;;;5196229;28;8789;-68
2022/05/22 04:10:14;;;;;;;;;1.60;1.60;;;;;;;;5182574;28;8888;-68
2022/05/22 04:12:46;;;;;;;;;0.20;0.20;;;;;;;;5203960;28;8807;-68
2022/05/22 04:15:20;;;;;;;;;2.20;2.20;;;;;;;;5203469;28;8827;-70
2022/05/22 04:17:53;;;;;;;;;14.00;14.00;;;;;;;;5154848;28;8888;-68
2022/05/22 04:20:28;;;;;;;;;3.60;3.60;;;;;;;;5170012;28;8847;-68
2022/05/22 04:26:10;;;;;;;;;0.20;0.20;;;;;;;;5170912;28;8781;-68
2022/05/22 04:28:42;;;;;;;;;0.20;0.20;;;;;;;;5170707;28;8816;-68
2022/05/22 04:31:23;;;;;;;;;11.00;11.00;;;;;;;;5171795;28;8808;-67
2022/05/22 04:34:12;;;;;;;;;7.20;7.20;;;;;;;;5166124;28;8930;-69
2022/05/22 04:36:44;;;;;;;;;9.60;8.60;;;;;;;;5151337;28;8813;-68
2022/05/22 04:39:31;;;;;;;;;3.00;3.00;;;;;;;;5177615;28;8859;-68
2022/05/22 04:42:08;;;;;;;;;1.00;1.00;;;;;;;;5171460;28;8785;-68
2022/05/22 04:44:40;;;;;;;;;2.40;2.40;;;;;;;;5186337;28;8793;-69
2022/05/22 04:47:29;;;;;;;;;1.80;1.80;;;;;;;;5190117;28;8907;-68
2022/05/22 04:50:19;;;;;;;;;5.00;5.00;;;;;;;;5207733;28;8805;-68
2022/05/22 04:53:09;;;;;;;;;0.20;0.20;;;;;;;;5206204;28;8792;-68
2022/05/22 04:56:05;;;;;;;;;0.00;0.00;;;;;;;;5153117;28;8806;-69
2022/05/22 04:58:45;;;;;;;;;1.80;1.80;;;;;;;;5174673;28;8796;-69
2022/05/22 05:01:36;;;;;;;;;2.00;2.00;;;;;;;;5172865;28;8791;-68
2022/05/22 05:04:26;;;;;;;;;1.00;1.00;;;;;;;;5175320;28;8838;-77
2022/05/22 05:07:07;;;;;;;;;3.40;3.40;;;;;;;;5188349;28;8813;-69
2022/05/22 05:09:51;;;;;;;;;0.00;0.00;;;;;;;;5190164;28;8816;-69
2022/05/22 05:12:42;;;;;;;;;0.20;0.20;;;;;;;;5190720;28;8819;-69
2022/05/22 05:15:16;;;;;;;;;5.00;5.00;;;;;;;;5173846;28;8813;-69
2022/05/22 05:17:56;;;;;;;;;14.80;14.40;;;;;;;;5151010;28;8829;-71
2022/05/22 05:20:31;;;;;;;;;1.20;1.20;;;;;;;;5174177;28;8794;-68
2022/05/22 05:23:20;;;;;;;;;0.80;0.80;;;;;;;;5176796;28;8804;-69
2022/05/22 05:26:03;;;;;;;;;38.40;38.00;;;;;;;;5173654;28;8815;-68
2022/05/22 05:28:35;;;;;;;;;25.80;25.00;;;;;;;;5166709;28;8827;-70
2022/05/22 05:31:06;;;;;;;;;0.00;0.00;;;;;;;;5175689;28;8984;-71
2022/05/22 05:33:39;;;;;;;;;4.60;4.60;;;;;;;;5168204;28;8791;-68
2022/05/22 05:36:36;;;;;;;;;6.40;6.40;;;;;;;;5139495;28;8900;-68
2022/05/22 05:39:34;;;;;;;;;7.60;6.80;;;;;;;;5134893;28;8927;-70
2022/05/22 05:42:14;;;;;;;;;17.00;16.80;;;;;;;;5151835;28;8869;-69
2022/05/22 05:44:45;;;;;;;;;11.60;11.60;;;;;;;;5151843;28;8803;-68
2022/05/22 05:47:26;;;;;;;;;0.00;0.00;;;;;;;;5167604;28;8997;-69
2022/05/22 05:50:21;;;;;;;;;2.60;2.20;;;;;;;;5167667;28;8838;-70
2022/05/22 05:53:19;;;;;;;;;4.80;4.80;;;;;;;;5141133;28;8803;-70
2022/05/22 05:56:09;;;;;;;;;2.60;2.60;;;;;;;;5164492;28;9534;-69
2022/05/22 05:58:41;;;;;;;;;2.20;2.20;;;;;;;;5174075;28;9532;-75
2022/05/22 06:01:25;;;;;;;;;2.00;1.60;;;;;;;;5171960;28;8813;-68
2022/05/22 06:03:56;;;;;;;;;5.00;5.00;;;;;;;;5188874;28;8792;-69
2022/05/22 06:06:28;;;;;;;;;1.00;1.00;;;;;;;;5152983;28;8906;-68
2022/05/22 06:09:02;;;;;;;;;7.00;7.00;;;;;;;;5153520;28;8790;-69
2022/05/22 06:12:06;;;;;;;;;1.00;1.00;;;;;;;;5151095;28;8886;-68
2022/05/22 06:14:46;;;;;;;;;13.60;13.20;;;;;;;;5188267;28;8805;-68
2022/05/22 06:17:27;;;;;;;;;3.40;2.80;;;;;;;;5172818;28;8805;-69
2022/05/22 06:19:59;;;;;;;;;1.20;0.60;;;;;;;;5189174;28;8793;-70
2022/05/22 06:22:35;;;;;;;;;2.80;2.80;;;;;;;;5188635;28;8943;-70
2022/05/22 06:25:09;;;;;;;;;2.00;1.40;;;;;;;;5188855;28;8797;-70
2022/05/22 06:28:03;;;;;;;;;1.00;1.00;;;;;;;;5156501;28;8791;-70
2022/05/22 06:30:56;;;;;;;;;5.40;5.40;;;;;;;;5164817;28;8833;-70
2022/05/22 06:33:39;;;;;;;;;5.40;4.60;;;;;;;;5171007;28;8813;-70
2022/05/22 06:36:33;;;;;;;;;1.80;1.80;;;;;;;;5161242;28;8797;-69
2022/05/22 06:39:51;;;;;;;;;0.00;0.00;;;;;;;;5172392;28;8781;-69
2022/05/22 06:42:59;;;;;;;;;9.80;9.80;;;;;;;;5188934;28;8813;-67
2022/05/22 06:45:51;;;;;;;;;31.20;28.20;;;;;;;;5204796;28;8871;-69
2022/05/22 06:48:51;;;;;;;;;34.20;34.20;;;;;;;;5104136;28;8819;-68
2022/05/22 06:51:36;;;;;;;;;3.40;3.40;;;;;;;;5167996;28;8863;-69
2022/05/22 06:54:14;;;;;;;;;3.40;3.40;;;;;;;;5171879;28;8842;-69
2022/05/22 06:57:03;;;;;;;;;2.40;2.40;;;;;;;;5167938;28;8802;-69
2022/05/22 06:59:43;;;;;;;;;0.60;0.60;;;;;;;;5184601;28;8807;-70
2022/05/22 07:02:39;;;;;;;;;3.00;3.00;;;;;;;;5165133;28;8799;-69
2022/05/22 07:05:23;;;;;;;;;5.00;5.00;;;;;;;;5179416;28;8808;-70
2022/05/22 07:08:08;;;;;;;;;1.80;1.80;;;;;;;;5193752;28;8923;-71
2022/05/22 07:13:52;;;;;;;;;2.40;2.40;;;;;;;;5197785;28;8819;-71
2022/05/22 07:16:29;;;;;;;;;6.60;6.60;;;;;;;;5192034;28;8814;-71
2022/05/22 07:19:18;;;;;;;;;5.60;5.60;;;;;;;;5178604;28;8848;-70
2022/05/22 07:22:03;;;;;;;;;1.00;1.00;;;;;;;;5191949;28;8905;-70
2022/05/22 07:25:01;;;;;;;;;4.60;4.60;;;;;;;;5192504;28;8787;-70
2022/05/22 07:27:50;;;;;;;;;3.00;3.00;;;;;;;;5178505;28;8860;-69
2022/05/22 07:30:35;;;;;;;;;2.00;2.00;;;;;;;;5190046;28;8820;-72
2022/05/22 07:33:32;;;;;;;;;1.40;1.40;;;;;;;;5221951;28;8792;-70
2022/05/22 07:36:27;;;;;;;;;7.60;7.60;;;;;;;;5167355;28;8800;-70
2022/05/22 07:39:16;;;;;;;;;2.60;2.60;;;;;;;;5225117;28;8874;-69
2022/05/22 07:42:13;;;;;;;;;8.20;8.20;;;;;;;;5173083;28;8838;-70
2022/05/22 07:45:03;;;;;;;;;5.20;5.20;;;;;;;;5203997;28;8798;-70
2022/05/22 07:47:57;;;;;;;;;0.60;0.60;;;;;;;;5182707;28;8790;-71
2022/05/22 07:50:41;;;;;;;;;22.60;22.60;;;;;;;;5173146;28;8840;-70
2022/05/22 07:53:42;;;;;;;;;1.00;1.00;;;;;;;;5169256;28;8797;-69
2022/05/22 07:56:29;;;;;;;;;4.00;4.00;;;;;;;;5200893;28;8798;-69
2022/05/22 07:59:19;;;;;;;;;2.40;2.40;;;;;;;;5186744;28;8805;-70
2022/05/22 08:02:28;;;;;;;;;0.20;0.00;;;;;;;;5161685;28;8825;-71
2022/05/22 08:05:02;;;;;;;;;1.00;1.00;;;;;;;;5183906;28;8765;-71
2022/05/22 08:07:51;;;;;;;;;3.40;3.40;;;;;;;;5209418;28;8809;-71
2022/05/22 08:10:43;;;;;;;;;6.60;6.60;;;;;;;;5203823;28;8864;-71
2022/05/22 08:13:32;;;;;;;;;13.20;13.20;;;;;;;;5212039;28;8796;-71
2022/05/22 08:16:03;;;;;;;;;2.40;2.40;;;;;;;;5207768;28;9558;-70
2022/05/22 08:18:38;;;;;;;;;3.00;3.00;;;;;;;;5207394;28;9538;-69
2022/05/22 08:21:09;;;;;;;;;1.60;1.60;;;;;;;;5223715;28;8788;-70
2022/05/22 08:23:50;;;;;;;;;1.00;1.00;;;;;;;;5195203;28;9579;-69
2022/05/22 08:26:27;;;;;;;;;0.60;0.60;;;;;;;;5175403;28;8879;-69
2022/05/22 08:28:58;;;;;;;;;6.80;6.80;;;;;;;;5192626;28;8792;-68
2022/05/22 08:31:30;;;;;;;;;3.60;3.60;;;;;;;;5192920;28;8812;-70
2022/05/22 08:34:02;;;;;;;;;0.00;0.00;;;;;;;;5187946;28;8796;-72
2022/05/22 08:36:33;;;;;;;;;2.00;2.00;;;;;;;;5170424;28;9530;-73
2022/05/22 08:39:05;;;;;;;;;3.00;3.00;;;;;;;;5185106;28;8826;-74
2022/05/22 08:41:46;;;;;;;;;9.40;9.40;;;;;;;;5169360;28;8791;-73
2022/05/22 08:44:43;;;;;;;;;6.40;6.40;;;;;;;;5169353;28;8815;-74
2022/05/22 08:47:21;;;;;;;;;3.60;3.00;;;;;;;;5171062;28;8809;-75
2022/05/22 08:50:01;;;;;;;;;6.00;6.00;;;;;;;;5185892;28;8846;-72
2022/05/22 08:52:42;;;;;;;;;4.00;4.00;;;;;;;;5152033;28;9627;-74
2022/05/22 08:59:05;;;;;;;;;9.40;9.40;;;;;;;;5184880;28;8822;-74
2022/05/22 09:05:12;;;;;;;;;3.00;3.00;;;;;;;;5167377;28;8805;-74
2022/05/22 09:07:49;;;;;;;;;1.20;1.20;;;;;;;;5169092;28;8956;-73
2022/05/22 09:10:38;;;;;;;;;2.00;2.00;;;;;;;;5195742;28;8837;-73
2022/05/22 09:13:44;;;;;;;;;1.80;1.60;;;;;;;;5186044;28;8858;-73
2022/05/22 09:16:21;;;;;;;;;4.00;4.00;;;;;;;;5188410;28;8820;-74
2022/05/22 09:19:29;;;;;;;;;0.00;0.00;;;;;;;;5190424;28;8840;-74
2022/05/22 09:22:06;;;;;;;;;2.00;2.00;;;;;;;;5187780;28;8808;-72
2022/05/22 09:24:52;;;;;;;;;2.60;2.60;;;;;;;;5188088;28;8789;-73
2022/05/22 09:27:37;;;;;;;;;4.80;4.40;;;;;;;;5204903;28;8812;-74
2022/05/22 09:30:26;;;;;;;;;0.00;0.00;;;;;;;;5188634;28;8820;-73
2022/05/22 09:33:13;;;;;;;;;12.00;12.00;;;;;;;;5177832;28;8923;-74
2022/05/22 09:35:59;;;;;;;;;9.20;8.00;;;;;;;;5167701;28;8826;-73
2022/05/22 09:38:45;;;;;;;;;14.60;14.60;;;;;;;;5171310;28;8803;-74
2022/05/22 09:41:22;;;;;;;;;5.20;5.20;;;;;;;;5155379;28;8845;-72
2022/05/22 09:43:53;;;;;;;;;2.00;2.00;;;;;;;;5155468;28;8806;-72
2022/05/22 09:46:39;;;;;;;;;1.00;1.00;;;;;;;;5154949;28;8811;-73
2022/05/22 09:49:29;;;;;;;;;8.80;8.40;;;;;;;;5152644;28;9812;-74
2022/05/22 09:52:15;;;;;;;;;3.80;3.80;;;;;;;;5168472;28;9506;-72
2022/05/22 09:54:53;;;;;;;;;0.00;0.00;;;;;;;;5168229;28;8780;-73
2022/05/22 09:57:27;;;;;;;;;0.00;0.00;;;;;;;;5167627;28;8779;-74
2022/05/22 10:00:02;;;;;;;;;0.60;0.60;;;;;;;;5168192;28;9526;-73
2022/05/22 10:02:49;;;;;;;;;3.60;3.60;;;;;;;;5186288;28;8789;-76
2022/05/22 10:05:23;;;;;;;;;2.20;2.20;;;;;;;;5171444;28;8797;-74
2022/05/22 10:07:57;;;;;;;;;0.00;0.00;;;;;;;;5167223;28;8916;-75
2022/05/22 10:10:49;;;;;;;;;1.00;1.00;;;;;;;;5151323;28;8821;-75
2022/05/22 10:13:53;;;;;;;;;2.00;2.00;;;;;;;;5157722;28;8795;-73
2022/05/22 10:16:36;;;;;;;;;0.00;0.00;;;;;;;;5135211;28;8803;-73
2022/05/22 10:19:07;;;;;;;;;3.00;3.00;;;;;;;;5183722;28;8807;-73
2022/05/22 10:22:16;;;;;;;;;24.20;22.80;;;;;;;;5170192;28;9806;-74
2022/05/22 10:25:12;;;;;;;;;20.40;19.40;;;;;;;;5183438;28;9808;-74
2022/05/22 10:27:58;;;;;;;;;5.20;4.40;;;;;;;;5149117;28;8833;-75
2022/05/22 10:30:34;;;;;;;;;24.20;19.80;;;;;;;;5166193;28;8835;-74
2022/05/22 10:33:20;;;;;;;;;75.60;58.60;;;;;;;;5181632;28;8807;-76
2022/05/22 10:35:57;;;;;;;;;5.80;5.80;;;;;;;;5160865;28;8827;-75
2022/05/22 10:38:31;;;;;;;;;1.00;1.00;;;;;;;;5183150;28;8818;-74
2022/05/22 10:44:27;;;;;;;;;3.00;3.00;;;;;;;;5170801;28;9556;-75
2022/05/22 10:47:02;;;;;;;;;0.60;0.60;;;;;;;;5187324;28;8871;-74
2022/05/22 10:49:51;;;;;;;;;1.00;1.00;;;;;;;;5192126;28;8939;-75
2022/05/22 10:52:24;;;;;;;;;2.00;2.00;;;;;;;;5190917;28;8970;-74
2022/05/22 10:55:20;;;;;;;;;3.60;3.60;;;;;;;;5206030;28;11451;-73
2022/05/22 10:58:20;;;;;;;;;4.60;4.20;;;;;;;;5206223;28;9528;-75
2022/05/22 11:00:53;;;;;;;;;1.60;1.60;;;;;;;;5206486;28;8800;-75
2022/05/22 11:03:26;;;;;;;;;5.40;5.40;;;;;;;;5185530;28;8788;-76
2022/05/22 11:05:59;;;;;;;;;2.40;2.20;;;;;;;;5224670;28;8818;-75
2022/05/22 11:08:32;;;;;;;;;1.00;1.00;;;;;;;;5193103;28;9564;-73
2022/05/22 11:11:16;;;;;;;;;5.00;5.00;;;;;;;;5209045;28;8887;-73
2022/05/22 11:13:52;;;;;;;;;1.00;1.00;;;;;;;;5209552;28;8787;-73
2022/05/22 11:16:29;;;;;;;;;0.00;0.00;;;;;;;;5226867;28;8819;-73
2022/05/22 11:19:06;;;;;;;;;1.00;1.00;;;;;;;;5185680;28;8840;-76
2022/05/22 11:21:58;;;;;;;;;8.40;8.40;;;;;;;;5190365;28;8867;-75
2022/05/22 11:24:29;;;;;;;;;1.00;1.00;;;;;;;;5207819;28;8822;-75
2022/05/22 11:27:11;;;;;;;;;1.00;1.00;;;;;;;;5207294;28;8775;-75
2022/05/22 11:30:01;;;;;;;;;1.80;1.80;;;;;;;;5171421;28;8811;-74
2022/05/22 11:32:41;;;;;;;;;8.00;8.00;;;;;;;;5184604;28;9530;-74
2022/05/22 11:35:32;;;;;;;;;10.00;10.00;;;;;;;;5183864;28;8862;-74
2022/05/22 11:38:12;;;;;;;;;8.00;8.00;;;;;;;;5188463;28;8793;-75
2022/05/22 11:41:01;;;;;;;;;10.00;10.00;;;;;;;;5187405;28;8927;-75
2022/05/22 11:43:51;;;;;;;;;3.60;3.60;;;;;;;;5190770;28;8799;-75
2022/05/22 11:46:29;;;;;;;;;2.60;1.80;;;;;;;;5208595;28;8790;-74
2022/05/22 11:49:22;;;;;;;;;3.20;3.20;;;;;;;;5226087;28;8775;-74
2022/05/22 11:51:56;;;;;;;;;6.40;6.40;;;;;;;;5191494;28;8841;-74
2022/05/22 11:54:36;;;;;;;;;1.00;0.60;;;;;;;;5171233;28;8842;-73
2022/05/22 11:57:28;;;;;;;;;0.80;0.80;;;;;;;;5182315;28;9511;-72
2022/05/22 12:00:03;;;;;;;;;0.40;0.40;;;;;;;;5210118;28;8808;-77
2022/05/22 12:03:01;;;;;;;;;3.00;3.00;;;;;;;;5224937;28;8791;-74
2022/05/22 12:05:56;;;;;;;;;0.00;0.00;;;;;;;;5167076;28;8793;-75
2022/05/22 12:08:52;;;;;;;;;1.80;1.80;;;;;;;;5193687;28;8811;-74
2022/05/22 12:12:14;;;;;;;;;11.60;11.60;;;;;;;;5187400;28;8941;-73
2022/05/22 12:15:44;;;;;;;;;3.00;3.00;;;;;;;;5098133;28;8903;-75
2022/05/22 12:18:30;;;;;;;;;2.60;2.60;;;;;;;;5187649;28;8797;-76
2022/05/22 12:21:21;;;;;;;;;3.00;3.00;;;;;;;;5188687;28;9556;-73
2022/05/22 12:24:13;;;;;;;;;2.60;2.60;;;;;;;;5187187;28;8795;-75
2022/05/22 12:30:17;;;;;;;;;10.80;10.40;;;;;;;;5204794;28;8924;-75
2022/05/22 12:33:33;;;;;;;;;7.60;7.60;;;;;;;;5193227;28;8775;-75
2022/05/22 12:36:15;;;;;;;;;7.20;7.20;;;;;;;;5157911;28;8932;-75
2022/05/22 12:39:13;;;;;;;;;3.60;3.60;;;;;;;;5203277;28;8880;-77
2022/05/22 12:41:56;;;;;;;;;4.80;4.80;;;;;;;;5155708;28;8774;-75
2022/05/22 12:44:48;;;;;;;;;12.00;12.00;;;;;;;;5170503;28;8944;-74
2022/05/22 12:47:19;;;;;;;;;16.60;16.60;;;;;;;;5186731;28;8811;-75
2022/05/22 12:49:54;;;;;;;;;17.40;17.40;;;;;;;;5204230;28;8872;-72
2022/05/22 12:52:28;;;;;;;;;2.60;2.60;;;;;;;;5163967;28;8826;-76
2022/05/22 12:55:25;;;;;;;;;2.00;2.00;;;;;;;;5185031;28;8845;-75
2022/05/22 13:02:55;;;;;;;;;4.00;4.00;;;;;;;;5185105;28;8767;-75
2022/05/22 13:06:06;;;;;;;;;5.20;5.20;;;;;;;;5158468;28;8835;-75
2022/05/22 13:13:07;;;;;;;;;2.80;2.80;;;;;;;;5186683;28;8815;-75
2022/05/22 13:16:01;;;;;;;;;3.60;3.60;;;;;;;;5159319;28;8789;-72
2022/05/22 13:22:41;;;;;;;;;6.60;6.40;;;;;;;;5190560;28;8770;-72
2022/05/22 13:25:28;;;;;;;;;3.80;3.80;;;;;;;;5190225;28;8882;-75
2022/05/22 13:28:02;;;;;;;;;5.40;5.40;;;;;;;;5178271;28;8773;-73
2022/05/22 13:30:35;;;;;;;;;14.20;14.20;;;;;;;;5169742;28;9524;-72
2022/05/22 13:33:16;;;;;;;;;11.60;10.40;;;;;;;;5178301;28;8793;-73
2022/05/22 13:36:14;;;;;;;;;18.80;18.20;;;;;;;;5192417;28;8781;-74
2022/05/22 13:38:52;;;;;;;;;9.00;9.00;;;;;;;;5189718;28;9735;-72
2022/05/22 13:41:42;;;;;;;;;12.20;12.20;;;;;;;;5173608;28;8780;-73
2022/05/22 13:44:33;;;;;;;;;9.00;9.00;;;;;;;;5189242;28;8793;-75
2022/05/22 13:47:43;;;;;;;;;4.60;4.60;;;;;;;;5185366;28;8779;-75
2022/05/22 13:53:07;;;;;;;;;2.00;2.00;;;;;;;;5216093;28;9552;-75
2022/05/22 13:55:42;;;;;;;;;17.80;17.80;;;;;;;;5193255;28;8795;-74
2022/05/22 13:58:37;;;;;;;;;11.40;11.20;;;;;;;;5212362;28;8790;-72
2022/05/22 14:01:12;;;;;;;;;1.60;1.60;;;;;;;;5227889;28;8826;-74
2022/05/22 14:03:58;;;;;;;;;2.20;2.20;;;;;;;;5193607;28;8790;-73
2022/05/22 14:06:35;;;;;;;;;12.60;11.80;;;;;;;;5166556;28;8811;-74
2022/05/22 14:09:07;;;;;;;;;13.20;12.00;;;;;;;;5152778;28;8783;-75
2022/05/22 14:11:38;;;;;;;;;20.80;19.20;;;;;;;;5180276;28;8827;-73
2022/05/22 14:14:17;;;;;;;;;17.60;17.40;;;;;;;;5136536;28;8787;-76
2022/05/22 14:16:54;;;;;;;;;7.80;7.80;;;;;;;;5152872;28;8827;-75
2022/05/22 14:19:30;;;;;;;;;12.40;12.40;;;;;;;;5152617;28;8853;-74
2022/05/22 14:22:12;;;;;;;;;7.20;7.20;;;;;;;;5168701;28;8788;-75
2022/05/22 14:24:59;;;;;;;;;7.00;7.00;;;;;;;;5202755;28;8798;-75
2022/05/22 14:27:42;;;;;;;;;6.80;6.80;;;;;;;;5173035;28;8781;-74
2022/05/22 14:30:15;;;;;;;;;8.40;8.40;;;;;;;;5184465;28;8828;-73
2022/05/22 14:32:48;;;;;;;;;4.40;4.40;;;;;;;;5189238;28;8777;-73
2022/05/22 14:35:27;;;;;;;;;11.00;11.00;;;;;;;;5223665;28;8917;-74
2022/05/22 14:41:55;;;;;;;;;4.00;4.00;;;;;;;;5198883;28;8779;-75
2022/05/22 14:45:10;;;;;;;;;12.60;10.20;;;;;;;;5188490;28;8805;-76
2022/05/22 14:47:41;;;;;;;;;7.00;7.00;;;;;;;;5187178;28;8803;-74
2022/05/22 14:50:15;;;;;;;;;1.80;1.80;;;;;;;;5204992;28;8838;-74
2022/05/22 14:52:55;;;;;;;;;1.60;1.60;;;;;;;;5188693;28;8859;-74
2022/05/22 14:55:42;;;;;;;;;9.80;9.60;;;;;;;;5189378;28;8805;-72
2022/05/22 14:58:17;;;;;;;;;5.60;5.60;;;;;;;;5173423;28;8937;-73
2022/05/22 15:01:10;;;;;;;;;5.40;5.40;;;;;;;;5183102;28;8814;-74
2022/05/22 15:03:45;;;;;;;;;3.20;3.20;;;;;;;;5176940;28;8800;-74
2022/05/22 15:06:21;;;;;;;;;4.60;4.60;;;;;;;;5184347;28;9512;-73
2022/05/22 15:08:57;;;;;;;;;5.00;5.00;;;;;;;;5148383;28;8783;-72
2022/05/22 15:11:31;;;;;;;;;8.40;8.40;;;;;;;;5147231;28;8877;-72
2022/05/22 15:14:26;;;;;;;;;15.00;14.60;;;;;;;;5164628;28;8795;-73
2022/05/22 15:16:59;;;;;;;;;14.80;14.80;;;;;;;;5151268;28;8799;-74
2022/05/22 15:19:49;;;;;;;;;22.40;22.40;;;;;;;;5147700;28;8787;-73
2022/05/22 15:25:46;;;;;;;;;34.60;34.40;;;;;;;;5162187;28;8807;-73
2022/05/22 15:28:36;;;;;;;;;22.20;18.60;;;;;;;;5184560;28;8817;-74
2022/05/22 15:31:09;;;;;;;;;20.60;20.40;;;;;;;;5151358;28;8835;-74
2022/05/22 15:33:52;;;;;;;;;7.80;7.60;;;;;;;;5163159;28;9549;-74
2022/05/22 15:36:34;;;;;;;;;20.80;20.80;;;;;;;;5169806;28;9532;-75
2022/05/22 15:39:28;;;;;;;;;34.00;32.20;;;;;;;;5171436;28;8880;-73
2022/05/22 15:42:19;;;;;;;;;8.00;8.00;;;;;;;;5203371;28;9570;-74
2022/05/22 15:44:53;;;;;;;;;17.60;17.40;;;;;;;;5169321;28;8944;-73
2022/05/22 15:47:55;;;;;;;;;5.40;5.40;;;;;;;;5188991;28;8795;-73
2022/05/22 15:50:47;;;;;;;;;0.00;0.00;;;;;;;;5187594;28;8830;-74
2022/05/22 15:53:18;;;;;;;;;6.40;6.40;;;;;;;;5186683;28;8894;-74
2022/05/22 15:55:49;;;;;;;;;18.00;18.00;;;;;;;;5171144;28;8791;-74
2022/05/22 15:58:20;;;;;;;;;12.00;10.40;;;;;;;;5187008;28;8807;-74
2022/05/22 16:00:58;;;;;;;;;2.60;2.00;;;;;;;;5205096;28;8799;-75
2022/05/22 16:03:30;;;;;;;;;11.20;11.20;;;;;;;;5187834;28;8791;-72
2022/05/22 16:06:03;;;;;;;;;14.40;14.40;;;;;;;;5186988;28;8810;-72
2022/05/22 16:08:34;;;;;;;;;2.00;2.00;;;;;;;;5205107;28;8795;-73
2022/05/22 16:11:31;;;;;;;;;12.80;12.60;;;;;;;;5204680;28;11516;-74
2022/05/22 16:14:04;;;;;;;;;17.20;17.20;;;;;;;;5170691;28;8815;-76
2022/05/22 16:16:39;;;;;;;;;22.60;18.60;;;;;;;;5174676;28;8836;-73
2022/05/22 16:19:13;;;;;;;;;5.00;4.60;;;;;;;;5180408;28;8831;-73
2022/05/22 16:21:47;;;;;;;;;19.60;18.40;;;;;;;;5150132;28;8799;-73
2022/05/22 16:24:18;;;;;;;;;11.60;11.60;;;;;;;;5136656;28;8823;-73
2022/05/22 16:26:49;;;;;;;;;11.00;9.60;;;;;;;;5177762;28;8820;-72
2022/05/22 16:29:21;;;;;;;;;4.40;4.40;;;;;;;;5170185;28;8801;-73
2022/05/22 16:32:11;;;;;;;;;6.20;6.20;;;;;;;;5186849;28;8818;-73
2022/05/22 16:34:42;;;;;;;;;1.00;1.00;;;;;;;;5189059;28;8842;-73
2022/05/22 16:37:13;;;;;;;;;2.60;2.60;;;;;;;;5165442;28;8839;-74
2022/05/22 16:39:44;;;;;;;;;15.40;15.40;;;;;;;;5150937;28;8779;-73
2022/05/22 16:42:15;;;;;;;;;2.00;1.25;;;;;;;;5184332;28;8795;-73
2022/05/22 16:44:46;;;;;;;;;2.20;1.80;;;;;;;;5191637;28;9229;-73
2022/05/22 16:53:19;;;;;;;;;5.80;5.80;;;;;;;;5185092;28;8910;-74
2022/05/22 16:55:52;;;;;;;;;29.60;26.40;;;;;;;;5208375;28;9506;-74
2022/05/22 16:58:45;;;;;;;;;25.60;24.20;;;;;;;;5204197;28;8793;-72
2022/05/22 17:01:16;;;;;;;;;57.80;42.40;;;;;;;;5186885;28;8791;-72
2022/05/22 17:03:48;;;;;;;;;45.20;32.00;;;;;;;;5202260;28;8805;-72
2022/05/22 17:06:23;;;;;;;;;39.00;36.80;;;;;;;;5157498;28;8846;-73
2022/05/22 17:08:58;;;;;;;;;42.80;36.80;;;;;;;;5187794;28;8940;-73